Time;durP1;ratioP1;P1;durP2;ratioP2;P2;SDS_P1;SDS_P2;PMS_P1;PMS_P2;Temp;Humidity;BMP_temperature;BMP_pressure;BME280_temperature;BME280_humidity;BME280_pressure;Samples;Min_cycle;Max_cycle;Signal;HPM_P1;HPM_P2
2021/12/30 00:01:17;;;;;;;44.63;6.80;;;8.40;99.90;;;;;;5008401;28;20042;-69
2021/12/30 00:03:45;;;;;;;37.95;6.25;;;8.40;99.90;;;;;;5011546;28;20057;-70
2021/12/30 00:06:10;;;;;;;52.70;7.53;;;8.40;99.90;;;;;;5020929;28;20042;-69
2021/12/30 00:08:37;;;;;;;52.85;6.80;;;8.40;99.90;;;;;;5009615;28;20044;-69
2021/12/30 00:11:04;;;;;;;56.38;8.48;;;8.40;99.90;;;;;;5006209;28;20038;-69
2021/12/30 00:13:30;;;;;;;53.88;8.15;;;8.30;99.90;;;;;;5006022;28;20493;-70
2021/12/30 00:15:56;;;;;;;39.08;7.53;;;8.30;99.90;;;;;;5009822;28;20053;-70
2021/12/30 00:18:22;;;;;;;41.30;6.55;;;8.30;99.90;;;;;;5007039;28;20401;-69
2021/12/30 00:20:48;;;;;;;43.88;7.75;;;8.30;99.90;;;;;;5007902;28;20072;-69
2021/12/30 00:23:13;;;;;;;36.70;6.20;;;8.30;99.90;;;;;;5004192;28;20061;-69
2021/12/30 00:25:41;;;;;;;54.50;8.27;;;8.30;99.90;;;;;;5009360;28;20049;-69
2021/12/30 00:28:14;;;;;;;52.05;7.60;;;8.30;99.90;;;;;;5010346;28;20056;-69
2021/12/30 00:30:41;;;;;;;50.40;7.57;;;8.20;99.90;;;;;;5004571;28;20038;-69
2021/12/30 00:33:07;;;;;;;44.75;7.15;;;8.20;99.90;;;;;;5004093;28;20042;-69
2021/12/30 00:35:33;;;;;;;50.60;9.60;;;8.20;99.90;;;;;;5004566;28;20045;-69
2021/12/30 00:37:59;;;;;;;49.05;9.00;;;8.20;99.90;;;;;;4999630;28;20625;-68
2021/12/30 00:40:25;;;;;;;55.08;7.75;;;8.20;99.90;;;;;;5025627;28;20057;-69
2021/12/30 00:42:52;;;;;;;47.33;7.95;;;8.20;99.90;;;;;;5009364;28;20034;-69
2021/12/30 00:45:18;;;;;;;36.30;6.90;;;8.20;99.90;;;;;;5008640;28;20493;-69
2021/12/30 00:47:44;;;;;;;42.30;7.47;;;8.20;99.90;;;;;;5008438;28;20056;-69
2021/12/30 00:50:11;;;;;;;44.60;7.05;;;8.10;99.90;;;;;;5008922;28;20405;-69
2021/12/30 00:52:37;;;;;;;52.90;9.25;;;8.10;99.90;;;;;;5013427;28;20045;-69
2021/12/30 00:55:04;;;;;;;41.38;8.55;;;8.10;99.90;;;;;;5007136;28;20470;-69
2021/12/30 00:57:30;;;;;;;50.13;9.50;;;8.10;99.90;;;;;;5009173;28;20517;-69
2021/12/30 00:59:55;;;;;;;48.63;7.45;;;8.10;99.90;;;;;;5009989;28;20053;-69
2021/12/30 01:02:21;;;;;;;44.42;7.03;;;8.00;99.90;;;;;;5023671;28;20041;-69
2021/12/30 01:04:47;;;;;;;61.53;10.18;;;8.00;99.90;;;;;;5025328;28;20042;-69
2021/12/30 01:07:12;;;;;;;51.78;8.70;;;7.90;99.90;;;;;;5007136;28;20042;-69
2021/12/30 01:09:38;;;;;;;36.30;6.95;;;7.90;99.90;;;;;;5009627;28;20101;-69
2021/12/30 01:12:04;;;;;;;49.53;8.48;;;7.90;99.90;;;;;;5006889;28;20048;-69
2021/12/30 01:14:31;;;;;;;53.65;9.65;;;7.80;99.90;;;;;;5009652;28;20049;-69
2021/12/30 01:17:10;;;;;;;46.05;8.45;;;7.70;99.90;;;;;;5024907;28;20505;-69
2021/12/30 01:19:42;;;;;;;53.92;7.80;;;7.70;99.90;;;;;;5006430;28;20052;-69
2021/12/30 01:22:21;;;;;;;41.22;7.75;;;7.70;99.90;;;;;;5010665;28;20064;-69
2021/12/30 01:24:48;;;;;;;42.28;7.70;;;7.60;99.90;;;;;;5006132;28;20273;-69
2021/12/30 01:27:13;;;;;;;52.17;8.88;;;7.60;99.90;;;;;;5007410;28;20054;-69
2021/12/30 01:29:40;;;;;;;47.28;6.68;;;7.60;99.90;;;;;;5007614;28;20419;-69
2021/12/30 01:32:06;;;;;;;49.25;7.47;;;7.50;99.90;;;;;;5009183;28;20509;-68
2021/12/30 01:34:32;;;;;;;43.20;7.47;;;7.50;99.90;;;;;;5006637;28;20042;-69
2021/12/30 01:37:01;;;;;;;40.38;6.65;;;7.60;99.90;;;;;;5007907;28;20106;-69
2021/12/30 01:39:28;;;;;;;46.30;7.40;;;7.60;99.90;;;;;;5002949;28;20057;-69
2021/12/30 01:41:54;;;;;;;37.53;6.75;;;7.60;99.90;;;;;;5002307;28;20052;-69
2021/12/30 01:44:20;;;;;;;40.20;7.20;;;7.60;99.90;;;;;;5009073;28;20041;-69
2021/12/30 01:46:48;;;;;;;40.55;7.80;;;7.60;99.90;;;;;;5008076;28;20320;-69
2021/12/30 01:49:14;;;;;;;45.13;7.28;;;7.60;99.90;;;;;;5004248;28;20042;-69
2021/12/30 01:51:41;;;;;;;42.78;7.13;;;7.60;99.90;;;;;;5006232;28;20065;-69
2021/12/30 01:54:07;;;;;;;49.60;6.75;;;7.60;99.90;;;;;;5023435;28;20071;-69
2021/12/30 01:56:33;;;;;;;40.10;6.68;;;7.60;99.90;;;;;;5007920;28;20097;-69
2021/12/30 01:58:59;;;;;;;43.15;6.95;;;7.60;99.90;;;;;;5008136;28;20131;-69
2021/12/30 02:01:25;;;;;;;45.60;6.72;;;7.60;99.90;;;;;;5003968;28;20053;-69
2021/12/30 02:03:51;;;;;;;37.08;6.10;;;7.60;99.90;;;;;;5015524;28;20041;-69
2021/12/30 02:06:17;;;;;;;44.25;6.72;;;7.50;99.90;;;;;;5004590;28;20049;-69
2021/12/30 02:08:43;;;;;;;50.47;6.82;;;7.50;99.90;;;;;;5027356;28;20033;-69
2021/12/30 02:11:08;;;;;;;40.60;7.00;;;7.50;99.90;;;;;;5011480;28;20195;-69
2021/12/30 02:13:34;;;;;;;44.10;8.13;;;7.50;99.90;;;;;;5023841;28;20200;-69
2021/12/30 02:16:02;;;;;;;39.67;7.72;;;7.50;99.90;;;;;;5006367;28;20082;-69
2021/12/30 02:18:29;;;;;;;41.58;5.82;;;7.50;99.90;;;;;;5008986;28;20033;-68
2021/12/30 02:21:00;;;;;;;42.25;8.05;;;7.50;99.90;;;;;;4999349;28;20409;-69
2021/12/30 02:23:32;;;;;;;35.67;6.43;;;7.50;99.90;;;;;;5004747;28;20113;-69
2021/12/30 02:26:10;;;;;;;38.90;6.35;;;7.60;99.90;;;;;;5006055;28;20049;-69
2021/12/30 02:28:38;;;;;;;41.80;6.55;;;7.60;99.90;;;;;;5006849;28;20405;-69
2021/12/30 02:31:09;;;;;;;47.90;7.00;;;7.70;99.90;;;;;;5004294;28;20054;-69
2021/12/30 02:33:36;;;;;;;47.75;7.85;;;7.80;99.90;;;;;;5004599;28;20201;-69
2021/12/30 02:36:03;;;;;;;44.15;7.55;;;7.80;99.90;;;;;;5007945;28;20557;-69
2021/12/30 02:38:29;;;;;;;42.95;6.80;;;7.80;99.90;;;;;;5008659;28;20486;-69
2021/12/30 02:40:57;;;;;;;52.90;8.68;;;7.80;99.90;;;;;;5001184;28;20049;-69
2021/12/30 02:43:28;;;;;;;52.03;7.78;;;7.80;99.90;;;;;;5008123;28;20540;-69
2021/12/30 02:45:56;;;;;;;64.40;8.32;;;7.80;99.90;;;;;;5005871;28;20382;-69
2021/12/30 02:48:24;;;;;;;56.92;9.27;;;7.70;99.90;;;;;;5000414;28;20045;-69
2021/12/30 02:50:53;;;;;;;54.95;8.95;;;7.70;99.90;;;;;;5005364;28;20034;-70
2021/12/30 02:53:20;;;;;;;70.15;8.80;;;7.70;99.90;;;;;;5007517;28;20135;-69
2021/12/30 02:55:47;;;;;;;49.25;7.95;;;7.80;99.90;;;;;;5024431;28;20196;-69
2021/12/30 02:58:13;;;;;;;56.17;8.48;;;7.80;99.90;;;;;;5008263;28;20123;-69
2021/12/30 03:00:42;;;;;;;59.45;8.40;;;7.90;99.90;;;;;;5022174;28;20140;-69
2021/12/30 03:03:19;;;;;;;55.95;8.05;;;7.90;99.90;;;;;;5009484;28;20037;-69
2021/12/30 03:05:45;;;;;;;73.80;8.70;;;8.00;99.90;;;;;;5008620;28;20060;-69
2021/12/30 03:08:10;;;;;;;57.97;8.13;;;8.00;99.90;;;;;;5004454;28;20589;-69
2021/12/30 03:10:36;;;;;;;67.30;10.73;;;8.00;99.90;;;;;;5012893;28;20050;-69
2021/12/30 03:13:10;;;;;;;65.97;9.60;;;8.10;99.90;;;;;;5014092;28;20030;-69
2021/12/30 03:15:36;;;;;;;41.40;7.68;;;8.10;99.90;;;;;;5008906;28;20053;-69
2021/12/30 03:18:03;;;;;;;71.80;9.07;;;8.20;99.90;;;;;;5014867;28;20037;-69
2021/12/30 03:20:33;;;;;;;70.22;9.93;;;8.30;99.90;;;;;;5007945;28;20548;-69
2021/12/30 03:22:59;;;;;;;66.57;10.75;;;8.20;99.90;;;;;;5004655;28;20038;-68
2021/12/30 03:25:25;;;;;;;60.90;9.82;;;8.20;99.90;;;;;;5009027;28;20042;-68
2021/12/30 03:27:50;;;;;;;63.67;9.77;;;8.30;99.90;;;;;;5006251;28;20046;-69
2021/12/30 03:30:17;;;;;;;69.78;9.80;;;8.30;99.90;;;;;;5024315;28;20050;-69
2021/12/30 03:32:43;;;;;;;69.15;9.27;;;8.30;99.90;;;;;;5011036;28;20124;-69
2021/12/30 03:35:10;;;;;;;61.97;9.55;;;8.30;99.90;;;;;;5010141;28;20046;-69
2021/12/30 03:37:36;;;;;;;59.65;9.27;;;8.40;99.90;;;;;;5012128;28;20037;-69
2021/12/30 03:40:06;;;;;;;70.78;9.75;;;8.30;99.90;;;;;;5005815;28;20494;-69
2021/12/30 03:42:31;;;;;;;62.85;8.75;;;8.30;99.90;;;;;;5005095;28;20062;-69
2021/12/30 03:45:00;;;;;;;59.42;8.18;;;8.30;99.90;;;;;;5022647;28;20148;-69
2021/12/30 03:47:26;;;;;;;67.72;9.25;;;8.40;99.90;;;;;;5007902;28;20069;-69
2021/12/30 03:49:52;;;;;;;54.22;9.60;;;8.40;99.90;;;;;;5006753;28;20140;-69
2021/12/30 03:52:28;;;;;;;68.22;9.00;;;8.50;99.90;;;;;;5018627;28;20141;-69
2021/12/30 03:54:53;;;;;;;53.22;9.10;;;8.50;99.90;;;;;;5007193;28;20116;-69
2021/12/30 03:57:19;;;;;;;48.00;8.15;;;8.50;99.90;;;;;;5021101;28;20135;-69
2021/12/30 03:59:45;;;;;;;57.80;9.32;;;8.50;99.90;;;;;;5006643;28;20442;-69
2021/12/30 04:02:10;;;;;;;60.28;9.98;;;8.60;99.90;;;;;;5021358;28;20116;-69
2021/12/30 04:04:36;;;;;;;60.72;8.88;;;8.60;99.90;;;;;;5005339;28;20053;-69
2021/12/30 04:07:02;;;;;;;51.85;7.80;;;8.70;99.90;;;;;;5006788;28;20049;-69
2021/12/30 04:09:28;;;;;;;43.85;7.75;;;8.80;99.90;;;;;;5009247;28;20187;-68
2021/12/30 04:11:54;;;;;;;65.40;9.27;;;8.90;99.90;;;;;;5007407;28;20299;-69
2021/12/30 04:14:20;;;;;;;55.28;9.05;;;9.00;99.90;;;;;;5007714;28;20046;-69
2021/12/30 04:16:46;;;;;;;66.35;9.40;;;9.00;99.90;;;;;;5006330;28;20045;-69
2021/12/30 04:19:12;;;;;;;61.75;9.15;;;9.00;99.90;;;;;;5004688;28;20048;-69
2021/12/30 04:21:38;;;;;;;77.10;10.90;;;9.00;99.90;;;;;;5006760;28;20401;-69
2021/12/30 04:24:04;;;;;;;61.63;10.25;;;9.00;99.90;;;;;;5008723;28;20142;-69
2021/12/30 04:26:30;;;;;;;68.93;9.82;;;9.00;99.90;;;;;;4991350;28;20045;-69
2021/12/30 04:28:56;;;;;;;71.07;11.38;;;9.00;99.90;;;;;;4991743;28;20377;-69
2021/12/30 04:31:23;;;;;;;76.72;11.43;;;9.00;99.90;;;;;;5000188;28;20053;-69
2021/12/30 04:33:48;;;;;;;71.90;11.63;;;8.90;99.90;;;;;;4991401;28;20053;-68
2021/12/30 04:36:14;;;;;;;86.85;12.13;;;8.90;99.90;;;;;;5004396;28;20057;-69
2021/12/30 04:38:40;;;;;;;76.20;12.20;;;9.00;99.90;;;;;;5009456;28;20042;-70
2021/12/30 04:41:06;;;;;;;83.13;13.32;;;9.00;99.90;;;;;;4988081;28;20054;-69
2021/12/30 04:43:32;;;;;;;88.47;13.65;;;9.00;99.90;;;;;;4992445;28;20520;-69
2021/12/30 04:46:00;;;;;;;88.78;14.57;;;9.00;99.90;;;;;;4991752;28;20042;-69
2021/12/30 04:48:25;;;;;;;79.75;13.48;;;9.00;99.90;;;;;;4988610;28;20382;-69
2021/12/30 04:50:51;;;;;;;95.80;14.98;;;9.00;99.90;;;;;;4989404;28;20041;-69
2021/12/30 04:53:18;;;;;;;85.63;14.80;;;9.00;99.90;;;;;;4987607;28;20092;-69
2021/12/30 04:55:44;;;;;;;83.82;15.02;;;9.10;99.90;;;;;;4990407;28;20045;-69
2021/12/30 04:58:11;;;;;;;97.78;16.42;;;9.10;99.90;;;;;;4989448;28;20041;-69
2021/12/30 05:00:36;;;;;;;122.15;18.73;;;9.10;99.90;;;;;;4994198;28;20057;-69
2021/12/30 05:03:10;;;;;;;104.45;19.25;;;9.00;99.90;;;;;;5005394;28;20405;-70
2021/12/30 05:05:41;;;;;;;120.15;23.15;;;9.00;99.90;;;;;;4988735;28;20049;-70
2021/12/30 05:08:07;;;;;;;126.18;24.35;;;9.00;99.90;;;;;;5008808;28;20417;-69
2021/12/30 05:10:34;;;;;;;118.95;25.75;;;9.10;99.90;;;;;;4996520;28;20045;-69
2021/12/30 05:13:01;;;;;;;120.55;24.40;;;9.10;99.90;;;;;;4991885;28;20113;-69
2021/12/30 05:15:26;;;;;;;123.30;27.35;;;9.10;99.90;;;;;;4988336;28;20184;-70
2021/12/30 05:17:52;;;;;;;126.47;28.45;;;9.20;99.90;;;;;;4989665;28;20672;-70
2021/12/30 05:20:18;;;;;;;127.45;27.88;;;9.20;99.90;;;;;;4968960;28;20421;-70
2021/12/30 05:22:44;;;;;;;118.07;25.85;;;9.20;99.90;;;;;;4992725;28;20045;-70
2021/12/30 05:25:11;;;;;;;117.95;25.70;;;9.20;99.90;;;;;;4989121;28;20064;-69
2021/12/30 05:27:37;;;;;;;133.05;27.58;;;9.30;99.90;;;;;;4989670;28;20042;-70
2021/12/30 05:30:08;;;;;;;102.05;24.08;;;9.40;99.90;;;;;;4989983;28;20635;-70
2021/12/30 05:32:34;;;;;;;107.57;25.70;;;9.40;99.90;;;;;;5006941;28;20057;-69
2021/12/30 05:35:00;;;;;;;117.50;26.23;;;9.40;99.90;;;;;;4982543;28;20038;-69
2021/12/30 05:37:26;;;;;;;102.38;22.80;;;9.50;99.90;;;;;;4993892;28;20091;-70
2021/12/30 05:39:52;;;;;;;117.40;27.25;;;9.50;99.90;;;;;;4989741;28;20038;-70
2021/12/30 05:42:19;;;;;;;132.40;29.38;;;9.60;99.90;;;;;;4991698;28;20045;-70
2021/12/30 05:44:44;;;;;;;122.75;28.40;;;9.60;99.90;;;;;;4987483;28;20074;-70
2021/12/30 05:47:10;;;;;;;113.72;27.95;;;9.60;99.90;;;;;;4988110;28;20077;-70
2021/12/30 05:49:35;;;;;;;124.75;27.60;;;9.60;99.90;;;;;;4991074;28;20120;-69
2021/12/30 05:52:01;;;;;;;127.97;26.52;;;9.60;99.90;;;;;;4992123;28;20049;-70
2021/12/30 05:54:27;;;;;;;126.03;28.15;;;9.70;99.90;;;;;;4991995;28;20069;-70
2021/12/30 05:56:52;;;;;;;148.57;28.70;;;9.70;99.90;;;;;;4986805;28;20046;-70
2021/12/30 05:59:18;;;;;;;90.47;23.10;;;9.70;99.90;;;;;;4978640;28;20778;-70
2021/12/30 06:01:44;;;;;;;128.05;28.38;;;9.80;99.90;;;;;;4994103;28;20052;-69
2021/12/30 06:04:09;;;;;;;129.48;28.90;;;9.80;99.90;;;;;;4986211;28;20040;-70
2021/12/30 06:06:35;;;;;;;136.00;27.98;;;9.80;99.90;;;;;;4989944;28;20073;-69
2021/12/30 06:09:00;;;;;;;109.30;25.10;;;9.90;99.90;;;;;;5009897;28;20038;-69
2021/12/30 06:11:26;;;;;;;81.65;19.20;;;9.90;99.90;;;;;;4991054;28;20037;-70
2021/12/30 06:13:51;;;;;;;85.95;21.67;;;9.90;99.90;;;;;;5011171;28;20072;-70
2021/12/30 06:16:17;;;;;;;93.38;22.88;;;10.00;99.90;;;;;;4990448;28;20045;-69
2021/12/30 06:18:43;;;;;;;90.55;23.85;;;10.10;99.90;;;;;;4990052;28;20501;-70
2021/12/30 06:21:08;;;;;;;88.35;21.95;;;10.10;99.90;;;;;;4987375;28;20107;-69
2021/12/30 06:23:34;;;;;;;86.13;22.15;;;10.10;99.90;;;;;;4993304;28;20046;-70
2021/12/30 06:26:00;;;;;;;68.72;17.88;;;10.20;99.90;;;;;;5007892;28;20081;-69
2021/12/30 06:28:25;;;;;;;74.43;21.10;;;10.20;99.90;;;;;;5003528;28;20129;-70
2021/12/30 06:30:51;;;;;;;70.95;20.30;;;10.20;99.90;;;;;;5016440;28;20045;-70
2021/12/30 06:33:16;;;;;;;70.10;19.70;;;10.30;99.90;;;;;;5024468;28;20090;-69
2021/12/30 06:35:42;;;;;;;67.07;19.55;;;10.30;99.90;;;;;;5013838;28;20042;-70
2021/12/30 06:38:08;;;;;;;59.45;18.35;;;10.30;99.90;;;;;;5016302;28;20520;-69
2021/12/30 06:40:34;;;;;;;66.15;19.80;;;10.40;99.90;;;;;;5004096;28;20418;-69
2021/12/30 06:43:00;;;;;;;46.40;17.40;;;10.40;99.90;;;;;;5014123;28;20051;-69
2021/12/30 06:45:25;;;;;;;41.38;14.32;;;10.40;99.90;;;;;;5010972;28;20034;-69
2021/12/30 06:47:51;;;;;;;51.33;17.15;;;10.50;99.90;;;;;;5011169;28;20108;-69
2021/12/30 06:50:17;;;;;;;50.55;16.48;;;10.40;99.90;;;;;;5006574;28;20080;-69
2021/12/30 06:52:47;;;;;;;49.38;15.05;;;10.50;99.90;;;;;;5009394;28;20045;-69
2021/12/30 06:55:13;;;;;;;37.17;12.90;;;10.50;99.90;;;;;;5009083;28;20041;-69
2021/12/30 06:57:40;;;;;;;35.95;12.75;;;10.60;99.90;;;;;;5012577;28;20093;-70
2021/12/30 07:00:09;;;;;;;41.42;14.18;;;10.60;99.90;;;;;;5007579;28;20041;-69
2021/12/30 07:02:35;;;;;;;39.33;12.57;;;10.60;99.90;;;;;;5006955;28;20100;-69
2021/12/30 07:05:01;;;;;;;40.78;12.85;;;10.60;99.90;;;;;;5001644;28;20579;-69
2021/12/30 07:07:27;;;;;;;33.42;9.50;;;10.70;99.90;;;;;;4994440;28;20503;-69
2021/12/30 07:09:52;;;;;;;33.83;11.32;;;10.70;99.90;;;;;;5004998;28;20045;-70
2021/12/30 07:12:18;;;;;;;31.60;10.32;;;10.70;99.90;;;;;;5026012;28;20045;-70
2021/12/30 07:14:43;;;;;;;26.55;9.40;;;10.70;99.90;;;;;;5011414;28;20034;-69
2021/12/30 07:17:09;;;;;;;23.10;9.43;;;10.70;99.90;;;;;;5007854;28;20056;-70
2021/12/30 07:19:35;;;;;;;21.83;8.63;;;10.70;99.90;;;;;;5027348;28;20065;-69
2021/12/30 07:22:00;;;;;;;22.23;8.55;;;10.70;99.90;;;;;;5010122;28;20065;-70
2021/12/30 07:24:26;;;;;;;20.48;8.52;;;10.80;99.90;;;;;;5012899;28;20076;-69
2021/12/30 07:26:52;;;;;;;17.15;7.13;;;10.70;99.90;;;;;;5010458;28;20409;-69
2021/12/30 07:29:18;;;;;;;16.55;6.55;;;10.80;99.90;;;;;;5026088;28;20052;-69
2021/12/30 07:31:44;;;;;;;14.00;6.05;;;10.80;99.90;;;;;;5027505;28;20052;-69
2021/12/30 07:34:10;;;;;;;23.33;8.85;;;10.90;99.90;;;;;;5004066;28;20034;-70
2021/12/30 07:36:36;;;;;;;25.38;9.30;;;10.90;99.90;;;;;;5012677;28;20049;-69
2021/12/30 07:39:01;;;;;;;18.52;6.97;;;10.80;99.90;;;;;;5023773;28;20084;-70
2021/12/30 07:41:27;;;;;;;22.10;8.85;;;10.80;99.90;;;;;;5007258;28;20057;-69
2021/12/30 07:43:53;;;;;;;12.75;5.78;;;10.90;99.90;;;;;;5008244;28;20068;-69
2021/12/30 07:46:18;;;;;;;23.13;8.60;;;10.90;99.90;;;;;;5011595;28;20046;-70
2021/12/30 07:48:44;;;;;;;21.40;8.65;;;10.80;99.90;;;;;;5025107;28;20060;-69
2021/12/30 07:51:12;;;;;;;18.90;6.53;;;10.80;99.90;;;;;;5009992;28;20055;-69
2021/12/30 07:53:39;;;;;;;18.60;8.18;;;10.80;99.90;;;;;;5009088;28;20045;-69
2021/12/30 07:56:07;;;;;;;26.60;10.40;;;10.80;99.90;;;;;;5012510;28;20049;-70
2021/12/30 07:58:33;;;;;;;20.95;8.20;;;10.80;99.90;;;;;;5007550;28;20058;-69
2021/12/30 08:00:58;;;;;;;21.05;8.55;;;10.80;99.90;;;;;;5004526;28;20049;-69
2021/12/30 08:03:24;;;;;;;17.58;6.75;;;10.90;99.90;;;;;;5009603;28;20405;-69
2021/12/30 08:05:50;;;;;;;25.35;7.63;;;10.90;99.90;;;;;;5005308;28;20148;-69
2021/12/30 08:08:16;;;;;;;22.30;6.40;;;10.90;99.90;;;;;;5019931;28;20405;-69
2021/12/30 08:10:42;;;;;;;16.38;5.18;;;11.00;99.90;;;;;;5007557;28;20053;-70
2021/12/30 08:13:08;;;;;;;19.33;4.78;;;11.00;99.90;;;;;;5005126;28;20056;-69
2021/12/30 08:15:33;;;;;;;20.05;5.50;;;11.00;99.90;;;;;;5009150;28;20069;-70
2021/12/30 08:17:59;;;;;;;17.00;5.50;;;11.00;99.90;;;;;;5008692;28;20389;-70
2021/12/30 08:20:27;;;;;;;21.52;5.20;;;11.00;99.90;;;;;;5002564;28;20042;-70
2021/12/30 08:22:53;;;;;;;12.55;3.90;;;11.00;99.90;;;;;;5008271;28;20042;-70
2021/12/30 08:25:20;;;;;;;15.25;4.28;;;11.00;99.90;;;;;;5023550;28;20046;-69
2021/12/30 08:27:47;;;;;;;16.50;4.25;;;11.10;99.90;;;;;;5027024;28;20042;-71
2021/12/30 08:30:15;;;;;;;26.25;5.00;;;11.10;99.90;;;;;;4995342;28;20060;-69
2021/12/30 08:32:42;;;;;;;16.42;3.17;;;11.10;99.90;;;;;;5007656;28;20052;-69
2021/12/30 08:35:09;;;;;;;19.48;4.07;;;11.10;99.90;;;;;;5005626;28;20046;-68
2021/12/30 08:37:35;;;;;;;15.27;3.10;;;11.10;99.90;;;;;;5006000;28;20264;-68
2021/12/30 08:40:05;;;;;;;19.60;3.88;;;11.10;99.90;;;;;;5008244;28;20148;-69
2021/12/30 08:42:31;;;;;;;16.25;3.53;;;11.20;99.90;;;;;;5007508;28;20056;-68
2021/12/30 08:44:59;;;;;;;11.30;2.92;;;11.20;99.90;;;;;;5003215;28;20033;-69
2021/12/30 08:47:27;;;;;;;13.15;3.13;;;11.20;99.90;;;;;;5004285;28;20531;-69
2021/12/30 08:49:55;;;;;;;15.05;3.40;;;11.20;99.90;;;;;;5008680;28;20138;-69
2021/12/30 08:52:23;;;;;;;15.80;3.42;;;11.20;99.90;;;;;;5006722;28;20049;-69
2021/12/30 08:54:50;;;;;;;22.75;3.40;;;11.20;99.90;;;;;;5005246;28;20049;-69
2021/12/30 08:57:17;;;;;;;11.70;2.45;;;11.20;99.90;;;;;;5002655;28;20049;-68
2021/12/30 08:59:43;;;;;;;18.52;3.70;;;11.30;99.90;;;;;;5009481;28;20420;-68
2021/12/30 09:02:09;;;;;;;13.50;2.72;;;11.20;99.90;;;;;;5005035;28;20428;-69
2021/12/30 09:04:35;;;;;;;22.27;3.88;;;11.30;99.90;;;;;;5013055;28;20061;-68
2021/12/30 09:07:02;;;;;;;20.08;4.13;;;11.30;99.90;;;;;;5004649;28;21447;-69
2021/12/30 09:09:28;;;;;;;17.25;3.42;;;11.30;99.90;;;;;;5005226;28;20522;-68
2021/12/30 09:11:55;;;;;;;16.98;3.28;;;11.30;99.90;;;;;;5003029;28;20054;-68
2021/12/30 09:14:21;;;;;;;15.50;2.85;;;11.30;99.90;;;;;;5006187;28;20110;-68
2021/12/30 09:16:48;;;;;;;22.95;4.47;;;11.40;99.90;;;;;;5020819;28;20041;-69
2021/12/30 09:19:15;;;;;;;23.58;3.67;;;11.30;99.90;;;;;;5003138;28;20709;-69
2021/12/30 09:21:42;;;;;;;18.55;3.08;;;11.30;99.90;;;;;;5004764;28;20096;-68
2021/12/30 09:24:09;;;;;;;14.75;3.10;;;11.40;99.90;;;;;;5004666;28;20078;-68
2021/12/30 09:26:38;;;;;;;21.10;3.83;;;11.40;99.90;;;;;;5007005;28;20075;-68
2021/12/30 09:29:10;;;;;;;15.45;3.20;;;11.40;99.90;;;;;;5010016;28;20393;-68
2021/12/30 09:31:44;;;;;;;12.38;3.55;;;11.40;99.90;;;;;;5001463;28;20076;-69
2021/12/30 09:34:10;;;;;;;20.02;3.28;;;11.40;99.90;;;;;;5010168;28;20126;-71
2021/12/30 09:36:37;;;;;;;22.25;3.88;;;11.40;99.90;;;;;;5017215;28;20084;-68
2021/12/30 09:39:11;;;;;;;19.20;4.00;;;11.40;99.90;;;;;;5006567;28;20168;-67
2021/12/30 09:41:43;;;;;;;17.48;3.22;;;11.40;99.90;;;;;;5008382;28;20050;-69
2021/12/30 09:44:12;;;;;;;22.63;3.78;;;11.40;99.90;;;;;;5004865;28;20112;-70
2021/12/30 09:46:38;;;;;;;14.68;3.80;;;11.50;99.90;;;;;;5000210;28;20481;-68
2021/12/30 09:49:06;;;;;;;13.85;2.60;;;11.50;99.90;;;;;;5008044;28;20038;-68
2021/12/30 09:51:32;;;;;;;26.17;4.30;;;11.50;99.90;;;;;;5012933;28;20155;-67
2021/12/30 09:53:58;;;;;;;20.73;4.38;;;11.60;99.90;;;;;;5005366;28;20037;-67
2021/12/30 09:56:24;;;;;;;20.55;3.38;;;11.60;99.90;;;;;;5009526;28;20503;-67
2021/12/30 09:58:50;;;;;;;14.85;3.03;;;11.60;99.90;;;;;;5004500;28;20584;-67
2021/12/30 10:01:16;;;;;;;18.73;4.10;;;11.70;99.90;;;;;;5013466;28;20188;-68
2021/12/30 10:03:43;;;;;;;23.65;4.05;;;11.70;99.90;;;;;;5013034;28;20116;-68
2021/12/30 10:06:11;;;;;;;18.13;3.42;;;11.70;99.90;;;;;;5008910;28;20490;-66
2021/12/30 10:08:42;;;;;;;18.73;2.70;;;11.70;99.90;;;;;;5006982;28;20038;-68
2021/12/30 10:11:13;;;;;;;16.10;2.53;;;11.80;99.90;;;;;;5007995;28;20054;-68
2021/12/30 10:13:47;;;;;;;20.45;3.50;;;11.80;99.90;;;;;;5009049;28;20046;-68
2021/12/30 10:16:15;;;;;;;23.27;3.92;;;11.80;99.90;;;;;;5013647;28;20101;-68
2021/12/30 10:18:50;;;;;;;21.80;4.05;;;11.70;99.90;;;;;;5016374;28;20496;-68
2021/12/30 10:21:37;;;;;;;20.50;3.40;;;11.70;99.90;;;;;;5011559;28;20099;-68
2021/12/30 10:24:07;;;;;;;18.90;3.65;;;11.70;99.90;;;;;;5013351;28;20042;-67
2021/12/30 10:26:52;;;;;;;23.77;4.13;;;11.70;99.90;;;;;;5017794;28;20449;-68
2021/12/30 10:29:19;;;;;;;22.17;4.47;;;11.70;99.90;;;;;;5018938;28;20057;-68
2021/12/30 10:31:44;;;;;;;23.27;4.00;;;11.70;99.90;;;;;;5037074;28;20132;-69
2021/12/30 10:34:11;;;;;;;18.45;4.20;;;11.70;99.90;;;;;;5010672;28;20140;-68
2021/12/30 10:36:46;;;;;;;25.02;4.63;;;11.80;99.90;;;;;;5034248;28;20042;-68
2021/12/30 10:39:20;;;;;;;31.67;5.25;;;11.70;99.90;;;;;;5010067;28;20080;-66
2021/12/30 10:41:49;;;;;;;27.60;5.85;;;11.70;99.90;;;;;;5018105;28;20037;-67
2021/12/30 10:44:15;;;;;;;24.92;5.15;;;11.80;99.90;;;;;;5018014;28;20125;-67
2021/12/30 10:46:41;;;;;;;36.00;6.45;;;11.70;99.90;;;;;;5015690;28;20524;-68
2021/12/30 10:49:22;;;;;;;30.27;5.50;;;11.70;99.90;;;;;;5014388;28;20046;-68
2021/12/30 10:51:49;;;;;;;31.63;4.68;;;11.70;99.90;;;;;;5021727;28;20053;-68
2021/12/30 10:54:24;;;;;;;22.40;5.20;;;11.70;99.90;;;;;;5010341;28;20038;-68
2021/12/30 10:57:04;;;;;;;34.45;6.28;;;11.70;99.90;;;;;;5009465;28;20049;-68
2021/12/30 10:59:32;;;;;;;37.95;6.85;;;11.70;99.90;;;;;;5017586;28;20042;-67
2021/12/30 11:02:13;;;;;;;40.10;6.63;;;11.70;99.90;;;;;;5016320;28;20038;-67
2021/12/30 11:04:40;;;;;;;30.20;6.40;;;11.70;99.90;;;;;;5013088;28;20146;-67
2021/12/30 11:07:08;;;;;;;22.98;4.30;;;11.70;99.90;;;;;;5008949;28;20176;-69
2021/12/30 11:09:34;;;;;;;26.55;5.00;;;11.70;99.90;;;;;;5012440;28;20406;-67
2021/12/30 11:12:03;;;;;;;26.33;6.30;;;11.70;99.90;;;;;;5015896;28;20038;-67
2021/12/30 11:14:31;;;;;;;43.30;7.72;;;11.70;99.90;;;;;;5017104;28;20072;-68
2021/12/30 11:17:21;;;;;;;39.33;7.65;;;11.70;99.90;;;;;;5009914;28;20041;-67
2021/12/30 11:19:52;;;;;;;34.90;7.05;;;11.70;99.90;;;;;;5011860;28;20045;-67
2021/12/30 11:22:21;;;;;;;32.70;6.38;;;11.70;99.90;;;;;;5013967;28;20065;-67
2021/12/30 11:24:48;;;;;;;40.95;7.20;;;11.70;99.90;;;;;;5013890;28;20049;-67
2021/12/30 11:27:15;;;;;;;34.50;6.97;;;11.70;99.90;;;;;;5014136;28;20057;-67
2021/12/30 11:29:45;;;;;;;48.72;8.80;;;11.70;99.90;;;;;;5012265;28;20069;-68
2021/12/30 11:32:18;;;;;;;27.05;6.13;;;11.70;99.90;;;;;;5032840;28;20045;-67
2021/12/30 11:34:45;;;;;;;43.63;7.50;;;11.70;99.90;;;;;;5026524;28;20508;-67
2021/12/30 11:37:12;;;;;;;35.35;6.95;;;11.70;99.90;;;;;;5011943;28;20299;-67
2021/12/30 11:39:50;;;;;;;35.63;5.28;;;11.70;99.90;;;;;;5005322;28;20050;-66
2021/12/30 11:42:25;;;;;;;39.53;6.47;;;11.70;99.90;;;;;;5009298;28;20562;-67
2021/12/30 11:44:52;;;;;;;38.40;6.82;;;11.70;99.90;;;;;;5009895;28;20116;-66
2021/12/30 11:47:34;;;;;;;38.60;7.20;;;11.70;99.90;;;;;;5006649;28;20472;-66
2021/12/30 11:50:19;;;;;;;40.05;7.15;;;11.70;99.90;;;;;;5011368;28;20402;-66
2021/12/30 11:52:50;;;;;;;38.33;7.93;;;11.70;99.90;;;;;;5007777;28;20050;-66
2021/12/30 11:56:01;;;;;;;48.13;7.38;;;11.70;99.90;;;;;;5009621;28;20046;-66
2021/12/30 11:58:29;;;;;;;36.10;6.45;;;11.70;99.90;;;;;;4927524;29;20058;-65
2021/12/30 12:01:02;;;;;;;33.40;7.82;;;11.80;99.90;;;;;;4995242;28;20052;-65
2021/12/30 12:03:27;;;;;;;32.65;6.28;;;11.80;99.90;;;;;;5008745;28;20042;-65
2021/12/30 12:05:53;;;;;;;33.30;7.28;;;11.80;99.90;;;;;;5016355;28;20054;-65
2021/12/30 12:08:19;;;;;;;33.70;6.25;;;11.90;99.90;;;;;;5008770;28;20049;-65
2021/12/30 12:11:12;;;;;;;33.38;6.90;;;11.90;99.90;;;;;;5012857;28;20053;-65
2021/12/30 12:13:40;;;;;;;32.63;6.03;;;12.00;99.90;;;;;;5008862;28;20053;-64
2021/12/30 12:16:06;;;;;;;32.35;6.28;;;12.00;99.90;;;;;;5009696;28;20129;-65
2021/12/30 12:18:32;;;;;;;29.63;6.18;;;12.00;99.90;;;;;;5008875;28;20137;-64
2021/12/30 12:21:04;;;;;;;21.65;4.38;;;12.10;99.90;;;;;;5006850;28;20038;-65
2021/12/30 12:23:37;;;;;;;26.83;5.07;;;12.10;99.90;;;;;;5024724;28;20108;-65
2021/12/30 12:26:20;;;;;;;29.25;6.55;;;12.10;99.90;;;;;;5023022;28;20052;-66
2021/12/30 12:28:47;;;;;;;29.88;6.18;;;12.10;99.90;;;;;;4999714;28;20053;-65
2021/12/30 12:31:13;;;;;;;35.70;5.70;;;12.00;99.90;;;;;;5001543;28;20056;-66
2021/12/30 12:33:42;;;;;;;22.98;4.70;;;12.00;99.90;;;;;;5007807;28;20490;-66
2021/12/30 12:36:15;;;;;;;24.00;4.25;;;12.00;99.90;;;;;;5010217;28;20038;-67
2021/12/30 12:38:44;;;;;;;28.17;5.53;;;12.00;99.90;;;;;;5026514;28;20042;-67
2021/12/30 12:41:27;;;;;;;26.00;5.22;;;11.90;99.90;;;;;;5022490;28;20053;-67